Time;durP1;ratioP1;P1;durP2;ratioP2;P2;SDS_P1;SDS_P2;PMS_P1;PMS_P2;Temp;Humidity;BMP_temperature;BMP_pressure;BME280_temperature;BME280_humidity;BME280_pressure;Samples;Min_cycle;Max_cycle;Signal;HPM_P1;HPM_P2
2021/01/08 00:01:09;;;;;;;1.92;1.70;;;;;;;10.82;49.29;99842.47;1835844;78;21507;-80
2021/01/08 00:03:40;;;;;;;2.33;1.90;;;;;;;10.80;49.21;99846.64;1835965;78;21196;-80
2021/01/08 00:06:10;;;;;;;2.00;1.80;;;;;;;10.78;49.26;99846.50;1835785;78;21159;-79
2021/01/08 00:08:37;;;;;;;3.17;1.70;;;;;;;10.76;49.33;99856.03;1835855;78;21151;-79
2021/01/08 00:11:06;;;;;;;1.92;1.62;;;;;;;10.79;49.37;99851.68;1835883;78;21138;-78
2021/01/08 00:13:34;;;;;;;3.33;1.87;;;;;;;10.81;49.36;99868.91;1806200;78;21158;-80
2021/01/08 00:16:05;;;;;;;2.33;2.12;;;;;;;10.80;49.43;99869.41;1835862;78;21371;-77
2021/01/08 00:18:33;;;;;;;2.90;2.60;;;;;;;10.79;49.60;99877.64;1835839;78;21174;-79
2021/01/08 00:21:00;;;;;;;3.15;2.80;;;;;;;10.79;49.57;99865.58;1835855;78;21179;-79
2021/01/08 00:23:28;;;;;;;2.77;2.58;;;;;;;10.80;49.53;99867.24;1835879;78;21171;-79
2021/01/08 00:25:56;;;;;;;3.17;2.83;;;;;;;10.80;49.57;99865.91;1835925;78;21174;-79
2021/01/08 00:28:24;;;;;;;4.12;3.42;;;;;;;10.79;49.56;99866.41;1835089;78;21780;-78
2021/01/08 00:30:53;;;;;;;3.85;3.35;;;;;;;10.79;49.64;99863.73;1835652;78;21148;-77
2021/01/08 00:33:21;;;;;;;4.35;3.65;;;;;;;10.78;49.73;99864.75;1835679;78;21345;-79
2021/01/08 00:35:48;;;;;;;4.28;3.35;;;;;;;10.76;49.77;99860.05;1835744;78;21693;-80
2021/01/08 00:38:16;;;;;;;5.05;3.72;;;;;;;10.77;49.82;99860.91;1835332;78;21182;-79
2021/01/08 00:40:44;;;;;;;4.50;3.30;;;;;;;10.78;49.83;99859.90;1835679;78;21189;-79
2021/01/08 00:43:13;;;;;;;3.58;3.25;;;;;;;10.75;49.84;99867.77;1835696;78;21150;-80
2021/01/08 00:45:41;;;;;;;3.98;3.58;;;;;;;10.76;49.92;99866.75;1836118;78;21520;-77
2021/01/08 00:48:09;;;;;;;3.65;3.30;;;;;;;10.78;49.97;99874.63;1835757;78;21171;-77
2021/01/08 00:50:37;;;;;;;4.25;3.85;;;;;;;10.79;49.98;99880.31;1836016;78;21167;-77
2021/01/08 00:53:04;;;;;;;4.50;3.67;;;;;;;10.80;49.90;99885.48;1835561;78;21784;-78
2021/01/08 00:55:32;;;;;;;4.17;3.42;;;;;;;10.85;49.84;99879.61;1835982;78;21175;-79
2021/01/08 00:58:02;;;;;;;5.53;3.70;;;;;;;10.88;49.67;99873.91;1835220;78;21174;-76
2021/01/08 01:00:30;;;;;;;4.87;4.17;;;;;;;10.86;49.65;99882.14;1835809;78;21142;-76
2021/01/08 01:02:57;;;;;;;4.53;3.87;;;;;;;10.84;49.60;99877.95;1835842;78;21664;-77
2021/01/08 01:05:25;;;;;;;3.42;3.12;;;;;;;10.82;49.71;99884.00;1835888;78;22641;-75
2021/01/08 01:07:53;;;;;;;3.17;2.87;;;;;;;10.82;49.67;99885.34;1835599;78;21107;-76
2021/01/08 01:10:21;;;;;;;3.37;3.08;;;;;;;10.84;49.53;99894.02;1835742;78;21143;-77
2021/01/08 01:12:50;;;;;;;3.75;3.15;;;;;;;10.82;49.47;99886.67;1835466;78;21171;-77
2021/01/08 01:15:18;;;;;;;4.25;3.52;;;;;;;10.85;49.51;99891.66;1835438;78;21722;-76
2021/01/08 01:17:46;;;;;;;4.10;3.20;;;;;;;10.86;49.42;99882.64;1835010;78;21331;-77
2021/01/08 01:20:14;;;;;;;3.55;3.20;;;;;;;10.84;49.36;99884.64;1834951;78;21666;-77
2021/01/08 01:22:41;;;;;;;4.60;3.75;;;;;;;10.86;49.30;99888.00;1834822;78;21159;-77
2021/01/08 01:25:10;;;;;;;5.45;3.58;;;;;;;10.85;49.25;99894.34;1834959;78;21150;-78
2021/01/08 01:27:38;;;;;;;3.70;3.27;;;;;;;10.89;49.16;99891.66;1835191;78;21583;-78
2021/01/08 01:30:08;;;;;;;3.50;3.15;;;;;;;10.85;49.19;99897.02;1835829;78;21790;-79
2021/01/08 01:32:36;;;;;;;3.67;2.90;;;;;;;10.86;49.17;99904.08;1836036;78;21263;-80
2021/01/08 01:35:06;;;;;;;3.42;2.77;;;;;;;10.87;49.11;99901.22;1835451;78;21171;-79
2021/01/08 01:37:34;;;;;;;3.70;3.37;;;;;;;10.86;49.02;99904.91;1835252;78;21506;-77
2021/01/08 01:40:02;;;;;;;3.00;2.70;;;;;;;10.87;48.96;99913.78;1835288;78;21195;-80
2021/01/08 01:42:29;;;;;;;3.47;3.10;;;;;;;10.83;49.00;99909.77;1835582;78;21375;-76
2021/01/08 01:44:57;;;;;;;2.95;2.67;;;;;;;10.80;49.07;99921.66;1835262;78;21174;-78
2021/01/08 01:47:26;;;;;;;3.58;2.90;;;;;;;10.79;49.14;99919.16;1835381;78;21151;-79
2021/01/08 01:49:54;;;;;;;4.33;3.47;;;;;;;10.79;49.18;99927.20;1835514;78;21126;-79
2021/01/08 01:52:21;;;;;;;3.62;3.12;;;;;;;10.85;49.09;99936.70;1835780;78;21187;-78
2021/01/08 01:54:49;;;;;;;4.00;2.67;;;;;;;10.89;49.04;99942.56;1836070;78;22029;-79
2021/01/08 01:57:17;;;;;;;3.27;2.98;;;;;;;10.89;48.89;99940.71;1836005;78;21375;-79
2021/01/08 01:59:44;;;;;;;3.58;3.22;;;;;;;10.89;48.76;99943.39;1836153;78;21395;-79
2021/01/08 02:02:20;;;;;;;3.77;3.35;;;;;;;10.91;48.74;99945.92;1835949;78;21416;-76
2021/01/08 02:04:48;;;;;;;6.53;4.83;;;;;;;10.92;48.69;99951.09;1835756;78;21079;-78
2021/01/08 02:07:15;;;;;;;8.28;5.40;;;;;;;10.91;48.66;99943.23;1835893;78;21355;-77
2021/01/08 02:09:43;;;;;;;5.33;4.47;;;;;;;10.88;48.54;99959.66;1835792;78;21131;-78
2021/01/08 02:12:11;;;;;;;4.22;3.83;;;;;;;10.83;48.49;99963.35;1805933;78;21413;-78
2021/01/08 02:14:41;;;;;;;5.10;3.58;;;;;;;10.79;48.51;99960.17;1835784;78;21164;-78
2021/01/08 02:17:09;;;;;;;4.58;3.67;;;;;;;10.76;48.45;99968.55;1835339;78;21582;-78
2021/01/08 02:19:47;;;;;;;6.37;4.30;;;;;;;10.75;48.43;99962.03;1835830;78;21468;-78
2021/01/08 02:22:30;;;;;;;5.62;3.98;;;;;;;10.77;48.53;99972.92;1806176;77;22744;-77
2021/01/08 02:25:13;;;;;;;4.78;4.08;;;;;;;10.76;48.49;99985.13;1799369;79;21189;-78
2021/01/08 02:27:43;;;;;;;4.37;3.62;;;;;;;10.77;48.50;99988.16;1806002;79;21798;-77
2021/01/08 02:30:14;;;;;;;4.83;3.55;;;;;;;10.78;48.44;99992.00;1717769;82;21191;-77
2021/01/08 02:32:42;;;;;;;6.55;3.65;;;;;;;10.77;48.24;99997.53;1807063;79;21145;-79
2021/01/08 02:35:11;;;;;;;4.22;3.70;;;;;;;10.74;48.20;99998.70;1717226;82;21211;-78
2021/01/08 02:37:42;;;;;;;5.03;3.95;;;;;;;10.73;48.18;99996.20;1807001;79;21065;-79
2021/01/08 02:40:12;;;;;;;5.65;4.08;;;;;;;10.70;48.18;100000.05;1807636;79;21370;-79
2021/01/08 02:42:45;;;;;;;6.42;4.58;;;;;;;10.71;48.10;100009.74;1785124;79;21194;-78
2021/01/08 02:45:14;;;;;;;5.00;4.28;;;;;;;10.69;48.05;100013.62;1806793;79;21181;-78
2021/01/08 02:47:42;;;;;;;5.00;4.42;;;;;;;10.66;48.03;100020.14;1738201;82;21138;-77
2021/01/08 02:50:14;;;;;;;4.87;4.12;;;;;;;10.63;48.02;100019.16;1807202;79;21169;-77
2021/01/08 02:52:42;;;;;;;5.97;4.28;;;;;;;10.61;47.98;100017.97;1807131;79;21380;-78
2021/01/08 02:55:11;;;;;;;4.28;3.85;;;;;;;10.63;47.94;100003.92;1737635;82;21231;-78
2021/01/08 02:57:42;;;;;;;6.70;4.80;;;;;;;10.63;47.88;100007.94;1806756;79;21176;-79
2021/01/08 03:00:10;;;;;;;6.05;5.15;;;;;;;10.65;47.77;100014.45;1737343;82;21239;-78
2021/01/08 03:02:38;;;;;;;9.58;5.53;;;;;;;10.65;47.71;100021.98;1806913;79;21145;-78
2021/01/08 03:05:07;;;;;;;7.50;5.03;;;;;;;10.66;47.68;100022.31;1716853;82;21467;-79
2021/01/08 03:07:34;;;;;;;6.85;5.03;;;;;;;10.68;47.58;100027.52;1806880;79;21190;-78
2021/01/08 03:10:03;;;;;;;8.55;6.37;;;;;;;10.70;47.59;100028.67;1737593;82;21169;-79
2021/01/08 03:12:31;;;;;;;7.45;5.78;;;;;;;10.71;47.51;100029.00;1784364;80;21158;-80
2021/01/08 03:15:01;;;;;;;7.12;5.62;;;;;;;10.69;47.43;100047.10;1792725;79;21662;-78
2021/01/08 03:17:28;;;;;;;9.03;6.78;;;;;;;10.68;47.31;100038.73;1716872;82;22260;-78
2021/01/08 03:19:56;;;;;;;9.05;6.47;;;;;;;10.65;47.38;100035.38;1806907;78;21205;-77
2021/01/08 03:22:24;;;;;;;9.35;6.65;;;;;;;10.63;47.39;100034.72;1737327;82;21633;-78
2021/01/08 03:24:52;;;;;;;10.72;7.30;;;;;;;10.59;47.42;100040.08;1806476;78;21067;-77
2021/01/08 03:27:20;;;;;;;9.78;6.95;;;;;;;10.55;47.38;100035.23;1806988;79;21189;-77
2021/01/08 03:29:47;;;;;;;9.95;7.22;;;;;;;10.55;47.46;100045.94;1737306;82;21769;-78
2021/01/08 03:32:15;;;;;;;11.50;7.37;;;;;;;10.56;47.45;100053.80;1807241;79;21038;-78
2021/01/08 03:34:43;;;;;;;11.40;7.62;;;;;;;10.52;47.39;100056.47;1737621;82;21184;-77
2021/01/08 03:37:10;;;;;;;12.20;7.95;;;;;;;10.45;47.47;100055.48;1806536;79;21114;-77
2021/01/08 03:39:38;;;;;;;13.00;8.93;;;;;;;10.43;47.43;100048.11;1806879;79;21177;-78
2021/01/08 03:42:06;;;;;;;10.70;7.78;;;;;;;10.43;47.54;100037.39;1736930;82;21379;-78
2021/01/08 03:44:34;;;;;;;11.33;7.75;;;;;;;10.41;47.59;100043.43;1807185;78;21185;-79
2021/01/08 03:47:02;;;;;;;11.95;9.15;;;;;;;10.41;47.56;100056.81;1805737;79;21141;-77
2021/01/08 03:49:30;;;;;;;12.05;8.35;;;;;;;10.41;47.66;100060.33;1806823;79;21165;-76
2021/01/08 03:51:57;;;;;;;14.20;9.48;;;;;;;10.45;47.67;100059.50;1806523;79;21161;-76
2021/01/08 03:54:26;;;;;;;16.10;9.93;;;;;;;10.46;47.64;100070.54;1806055;79;21182;-76
2021/01/08 03:56:53;;;;;;;14.18;9.58;;;;;;;10.47;47.63;100065.52;1805440;79;21200;-77
2021/01/08 03:59:21;;;;;;;13.28;9.58;;;;;;;10.47;47.56;100062.83;1805964;79;21130;-77
2021/01/08 04:01:48;;;;;;;13.85;10.15;;;;;;;10.49;47.59;100066.20;1737515;82;21085;-76
2021/01/08 04:04:16;;;;;;;13.95;9.45;;;;;;;10.50;47.49;100067.86;1806722;79;21572;-77
2021/01/08 04:06:45;;;;;;;15.15;11.20;;;;;;;10.47;47.53;100073.55;1806420;79;21422;-76
2021/01/08 04:09:12;;;;;;;15.70;11.15;;;;;;;10.45;47.57;100070.20;1737076;82;21203;-76
2021/01/08 04:11:41;;;;;;;17.37;11.60;;;;;;;10.35;47.79;100071.69;1806652;78;21153;-77
2021/01/08 04:14:09;;;;;;;18.45;12.80;;;;;;;10.32;47.91;100069.36;1806249;79;21185;-78
2021/01/08 04:16:38;;;;;;;17.80;11.90;;;;;;;10.29;47.90;100072.36;1737071;82;21223;-78
2021/01/08 04:19:08;;;;;;;18.98;12.65;;;;;;;10.26;47.92;100077.20;1806347;79;21502;-79
2021/01/08 04:21:36;;;;;;;19.15;13.20;;;;;;;10.25;47.84;100071.52;1736798;82;21534;-77
2021/01/08 04:24:04;;;;;;;21.23;13.43;;;;;;;10.24;47.89;100067.14;1805661;79;21525;-77
2021/01/08 04:26:32;;;;;;;21.75;13.83;;;;;;;10.23;47.97;100073.50;1736849;82;21175;-76
2021/01/08 04:29:00;;;;;;;19.62;12.95;;;;;;;10.22;48.07;100081.17;1806124;79;21110;-77
2021/01/08 04:31:27;;;;;;;18.45;12.13;;;;;;;10.24;48.10;100079.19;1737515;82;21423;-77
2021/01/08 04:33:55;;;;;;;19.42;12.93;;;;;;;10.23;47.99;100086.89;1805217;79;21220;-77
2021/01/08 04:36:23;;;;;;;18.50;12.80;;;;;;;10.20;47.87;100091.22;1736418;82;21363;-79
2021/01/08 04:38:51;;;;;;;21.20;12.80;;;;;;;10.19;47.96;100092.23;1805887;79;20931;-77
2021/01/08 04:41:18;;;;;;;19.37;11.75;;;;;;;10.20;47.97;100090.72;1737437;82;21124;-78
2021/01/08 04:43:46;;;;;;;21.42;14.13;;;;;;;10.21;47.87;100103.09;1806478;79;21369;-78
2021/01/08 04:46:21;;;;;;;21.07;13.22;;;;;;;10.19;47.93;100101.09;1715480;82;21223;-77
2021/01/08 04:48:49;;;;;;;21.93;13.35;;;;;;;10.18;47.89;100096.75;1803119;79;21078;-78
2021/01/08 04:51:17;;;;;;;21.60;13.55;;;;;;;10.20;47.88;100095.23;1736747;82;21167;-76
2021/01/08 04:53:45;;;;;;;19.65;13.18;;;;;;;10.18;47.84;100091.39;1795637;79;21118;-79
2021/01/08 04:56:14;;;;;;;25.15;14.33;;;;;;;10.19;47.83;100099.75;1770955;80;21373;-77
2021/01/08 04:58:42;;;;;;;24.70;13.58;;;;;;;10.21;47.71;100097.73;1771930;80;21604;-78
2021/01/08 05:01:10;;;;;;;23.25;13.53;;;;;;;10.20;47.71;100095.23;1763222;80;21394;-77
2021/01/08 05:03:38;;;;;;;24.52;15.13;;;;;;;10.19;47.74;100099.75;1771412;80;21170;-79
2021/01/08 05:06:05;;;;;;;23.60;15.10;;;;;;;10.18;47.72;100102.10;1763589;80;21182;-79
2021/01/08 05:08:33;;;;;;;22.20;14.40;;;;;;;10.19;47.77;100106.95;1770698;80;21379;-77
2021/01/08 05:11:25;;;;;;;23.20;13.65;;;;;;;10.18;47.86;100097.25;1771771;80;21197;-78
2021/01/08 05:14:01;;;;;;;23.32;13.13;;;;;;;10.18;47.80;100110.12;1771967;80;21637;-78
2021/01/08 05:16:32;;;;;;;17.37;10.88;;;;;;;10.19;47.69;100115.81;1772277;80;21499;-79
2021/01/08 05:19:04;;;;;;;18.17;11.93;;;;;;;10.22;47.40;100113.29;1772194;80;21648;-78
2021/01/08 05:21:32;;;;;;;21.45;12.63;;;;;;;10.18;47.32;100111.97;1780038;79;21810;-77
2021/01/08 05:24:03;;;;;;;20.72;11.78;;;;;;;10.16;47.37;100118.80;1790892;79;21169;-76
2021/01/08 05:26:31;;;;;;;18.95;11.68;;;;;;;10.14;47.41;100124.33;1805406;79;21170;-77
2021/01/08 05:29:01;;;;;;;17.25;11.68;;;;;;;10.13;47.47;100121.83;1805097;79;21177;-76
2021/01/08 05:31:33;;;;;;;20.08;12.20;;;;;;;10.13;47.41;100126.68;1805977;79;21093;-78
2021/01/08 05:34:01;;;;;;;19.92;12.60;;;;;;;10.14;47.17;100129.69;1804872;79;22215;-76
2021/01/08 05:36:29;;;;;;;19.35;12.50;;;;;;;10.12;47.21;100134.85;1804903;79;21585;-77
2021/01/08 05:38:58;;;;;;;18.82;12.07;;;;;;;10.11;47.24;100134.02;1780370;79;21637;-77
2021/01/08 05:41:30;;;;;;;21.97;13.65;;;;;;;10.11;47.25;100136.69;1773272;80;21764;-77
2021/01/08 05:43:59;;;;;;;21.05;12.53;;;;;;;10.11;47.24;100139.38;1773997;80;21130;-79
2021/01/08 05:46:29;;;;;;;18.87;11.88;;;;;;;10.09;47.40;100144.56;1791868;79;21337;-79
2021/01/08 05:49:05;;;;;;;22.90;13.72;;;;;;;10.08;47.50;100156.24;1780510;79;21444;-77
2021/01/08 05:51:36;;;;;;;18.15;12.07;;;;;;;10.10;47.43;100149.74;1753544;79;21101;-77
2021/01/08 05:54:05;;;;;;;19.37;12.65;;;;;;;10.13;47.40;100151.27;1776188;79;21537;-77
2021/01/08 05:56:36;;;;;;;23.05;13.25;;;;;;;10.13;47.32;100147.25;1774308;80;21118;-78
2021/01/08 05:59:05;;;;;;;23.12;14.30;;;;;;;10.13;47.34;100155.28;1773342;80;21369;-78
2021/01/08 06:01:35;;;;;;;21.90;13.68;;;;;;;10.11;47.32;100154.09;1770849;79;21137;-78
2021/01/08 06:04:05;;;;;;;22.93;13.28;;;;;;;10.09;47.43;100156.61;1769263;80;21671;-77
2021/01/08 06:06:43;;;;;;;25.00;14.47;;;;;;;10.08;47.37;100160.26;1774121;79;21542;-79
2021/01/08 06:09:12;;;;;;;21.68;13.15;;;;;;;10.06;47.31;100163.61;1774731;79;21192;-78
2021/01/08 06:11:43;;;;;;;21.48;13.80;;;;;;;10.03;47.38;100164.76;1802293;79;22270;-78
2021/01/08 06:14:14;;;;;;;21.57;13.78;;;;;;;10.04;47.45;100163.78;1805763;79;21593;-78
2021/01/08 06:16:47;;;;;;;21.85;13.53;;;;;;;10.04;47.39;100163.78;1806044;79;21161;-77
2021/01/08 06:19:16;;;;;;;22.22;13.32;;;;;;;10.06;47.29;100173.81;1806101;79;21645;-78
2021/01/08 06:21:46;;;;;;;19.92;12.40;;;;;;;10.05;47.30;100168.63;1806407;79;21617;-77
2021/01/08 06:24:24;;;;;;;19.37;12.85;;;;;;;10.06;47.27;100184.52;1806648;79;21357;-79
2021/01/08 06:26:52;;;;;;;21.55;13.62;;;;;;;10.07;47.32;100187.52;1806308;79;21173;-78
2021/01/08 06:29:23;;;;;;;23.77;14.28;;;;;;;10.08;47.36;100191.03;1805259;79;21213;-78
2021/01/08 06:31:53;;;;;;;21.25;13.28;;;;;;;10.08;47.27;100191.91;1781699;79;21610;-77
2021/01/08 06:34:27;;;;;;;23.00;14.07;;;;;;;10.07;47.29;100188.86;1780616;79;21190;-77
2021/01/08 06:37:08;;;;;;;22.10;13.58;;;;;;;10.06;47.27;100195.72;1774234;80;21693;-77
2021/01/08 06:39:45;;;;;;;18.15;12.13;;;;;;;10.05;47.30;100202.91;1774085;80;21131;-77
2021/01/08 06:42:24;;;;;;;20.97;12.55;;;;;;;10.04;47.19;100205.27;1774271;80;21418;-78
2021/01/08 06:44:51;;;;;;;22.27;13.48;;;;;;;10.02;46.97;100215.77;1773678;80;21175;-79
2021/01/08 06:47:22;;;;;;;22.90;12.73;;;;;;;10.01;46.97;100214.10;1752393;80;21199;-78
2021/01/08 06:49:54;;;;;;;19.57;11.83;;;;;;;10.03;46.93;100224.13;1773710;80;21372;-77
2021/01/08 06:52:21;;;;;;;21.10;12.43;;;;;;;10.03;46.95;100221.45;1773552;80;21214;-79
2021/01/08 06:54:54;;;;;;;21.10;12.50;;;;;;;10.04;47.00;100233.36;1768887;79;21240;-79
2021/01/08 06:57:21;;;;;;;24.40;14.78;;;;;;;10.07;47.08;100235.69;1759275;79;21102;-78
2021/01/08 06:59:55;;;;;;;21.42;13.72;;;;;;;10.07;47.11;100245.06;1752563;79;21084;-78
2021/01/08 07:02:24;;;;;;;23.10;15.10;;;;;;;10.08;47.17;100250.77;1797612;79;22242;-79
2021/01/08 07:04:52;;;;;;;27.65;17.15;;;;;;;10.09;47.23;100255.13;1805538;79;21121;-78
2021/01/08 07:07:22;;;;;;;22.90;13.90;;;;;;;10.10;47.34;100257.30;1783320;79;21836;-79
2021/01/08 07:09:50;;;;;;;20.45;12.60;;;;;;;10.10;47.36;100259.47;1784083;79;21053;-79
2021/01/08 07:12:23;;;;;;;17.60;12.13;;;;;;;10.11;47.35;100269.16;1805109;79;21188;-77
2021/01/08 07:14:52;;;;;;;21.27;13.25;;;;;;;10.11;47.31;100283.05;1785444;79;21201;-79
2021/01/08 07:17:30;;;;;;;24.40;14.93;;;;;;;10.20;46.98;100287.95;1806747;79;21184;-79
2021/01/08 07:20:00;;;;;;;24.00;14.40;;;;;;;10.22;46.89;100284.59;1805592;79;21154;-80
2021/01/08 07:22:36;;;;;;;21.65;13.90;;;;;;;10.24;46.75;100301.35;1805738;79;21181;-77
2021/01/08 07:25:13;;;;;;;19.37;11.50;;;;;;;10.24;46.84;100299.55;1788910;79;21181;-78
2021/01/08 07:27:43;;;;;;;18.98;10.82;;;;;;;10.25;46.74;100303.06;1774295;80;21200;-78
2021/01/08 07:30:13;;;;;;;17.80;10.88;;;;;;;10.26;46.49;100311.42;1774597;80;21197;-78
2021/01/08 07:32:47;;;;;;;17.80;11.57;;;;;;;10.24;46.41;100318.28;1776638;79;21198;-80
2021/01/08 07:35:21;;;;;;;17.00;11.20;;;;;;;10.24;46.32;100309.38;1780826;79;21633;-77
2021/01/08 07:38:08;;;;;;;13.55;9.73;;;;;;;10.24;46.25;100306.70;1772273;80;22116;-77
2021/01/08 07:40:50;;;;;;;13.93;8.95;;;;;;;10.24;46.07;100317.41;1792860;79;22144;-79
2021/01/08 07:43:18;;;;;;;16.30;9.50;;;;;;;10.21;46.00;100317.22;1799714;79;21656;-79
2021/01/08 07:45:58;;;;;;;14.18;9.50;;;;;;;10.19;45.94;100316.55;1804236;79;21174;-78
2021/01/08 07:48:35;;;;;;;14.25;9.43;;;;;;;10.18;45.93;100320.23;1779759;79;21185;-79
2021/01/08 07:51:12;;;;;;;14.73;8.95;;;;;;;10.19;45.76;100325.09;1773748;80;21101;-80
2021/01/08 07:53:50;;;;;;;16.27;9.45;;;;;;;10.19;45.73;100333.95;1786420;79;21363;-79
2021/01/08 07:56:24;;;;;;;15.05;9.15;;;;;;;10.16;45.61;100341.78;1774383;80;21098;-78
2021/01/08 07:59:04;;;;;;;13.38;8.80;;;;;;;10.16;45.67;100340.45;1792816;79;21082;-79
2021/01/08 08:01:32;;;;;;;14.93;9.55;;;;;;;10.16;45.66;100338.27;1795078;79;21442;-79
2021/01/08 08:04:05;;;;;;;16.32;9.80;;;;;;;10.16;45.55;100348.48;1801111;79;21171;-78
2021/01/08 08:06:35;;;;;;;15.83;10.00;;;;;;;10.16;45.64;100357.84;1774635;80;21357;-79
2021/01/08 08:09:05;;;;;;;15.78;10.95;;;;;;;10.18;45.69;100353.70;1774114;80;21206;-77
2021/01/08 08:11:37;;;;;;;16.00;9.85;;;;;;;10.19;45.71;100342.48;1772834;80;21126;-78
2021/01/08 08:14:09;;;;;;;18.20;11.28;;;;;;;10.18;45.71;100355.53;1774515;80;21220;-78
2021/01/08 08:16:38;;;;;;;17.75;10.75;;;;;;;10.19;45.77;100354.53;1774601;80;21106;-79
2021/01/08 08:19:09;;;;;;;20.05;10.15;;;;;;;10.22;45.83;100355.53;1774736;80;21373;-79
2021/01/08 08:21:38;;;;;;;21.77;12.53;;;;;;;10.20;45.91;100359.72;1774523;80;21704;-79
2021/01/08 08:24:06;;;;;;;20.95;12.10;;;;;;;10.22;46.03;100356.40;1771944;80;21631;-78
2021/01/08 08:26:34;;;;;;;19.57;12.07;;;;;;;10.24;45.95;100353.55;1751912;80;21183;-79
2021/01/08 08:29:12;;;;;;;17.85;10.53;;;;;;;10.27;45.94;100358.13;1773793;80;21198;-78
2021/01/08 08:31:45;;;;;;;19.15;11.35;;;;;;;10.31;45.75;100359.97;1773572;79;22517;-78
2021/01/08 08:34:15;;;;;;;16.35;10.40;;;;;;;10.30;45.66;100355.11;1771219;80;21202;-80
2021/01/08 08:36:43;;;;;;;15.28;10.90;;;;;;;10.30;45.47;100356.45;1771888;80;21364;-81
2021/01/08 08:39:14;;;;;;;17.37;11.45;;;;;;;10.31;45.38;100351.46;1772878;79;21533;-79
2021/01/08 08:41:48;;;;;;;18.55;12.13;;;;;;;10.29;45.41;100355.28;1805121;79;21274;-78
2021/01/08 08:44:17;;;;;;;19.67;12.65;;;;;;;10.28;45.45;100352.27;1806325;79;21610;-76
2021/01/08 08:46:57;;;;;;;18.02;12.23;;;;;;;10.26;45.47;100355.59;1781089;79;21282;-78
2021/01/08 08:49:34;;;;;;;17.23;11.22;;;;;;;10.26;45.51;100357.77;1765088;80;21558;-78
2021/01/08 08:52:03;;;;;;;18.05;10.98;;;;;;;10.26;45.59;100355.59;1779401;79;21114;-78
2021/01/08 08:54:38;;;;;;;18.77;11.60;;;;;;;10.24;45.71;100356.23;1774068;80;21107;-79
2021/01/08 08:57:08;;;;;;;18.48;11.93;;;;;;;10.25;45.60;100360.61;1774593;80;21368;-78
2021/01/08 08:59:46;;;;;;;17.23;12.28;;;;;;;10.25;45.62;100367.30;1773843;80;21254;-80
2021/01/08 09:02:22;;;;;;;;;;;;;;;10.25;45.65;100361.95;1775260;80;21193;-78
2021/01/08 09:04:53;;;;;;;14.63;9.63;;;;;;;10.23;45.50;100374.63;1772565;80;20736;-78
2021/01/08 09:07:34;;;;;;;15.93;10.13;;;;;;;10.22;45.37;100376.47;1773214;80;21361;-77
2021/01/08 09:10:15;;;;;;;15.93;10.23;;;;;;;10.19;45.10;100370.59;1786329;79;21434;-77
2021/01/08 09:13:04;;;;;;;16.50;10.32;;;;;;;10.20;44.97;100376.28;1795890;79;21665;-78
2021/01/08 09:15:44;;;;;;;15.00;9.53;;;;;;;10.20;44.89;100374.94;1778634;80;21101;-78
2021/01/08 09:18:25;;;;;;;12.45;8.63;;;;;;;10.19;44.80;100373.27;1770564;80;21089;-77
2021/01/08 09:21:12;;;;;;;14.00;8.85;;;;;;;10.19;44.68;100381.30;1759091;80;21779;-80
2021/01/08 09:23:47;;;;;;;15.03;9.68;;;;;;;10.23;44.61;100389.36;1840166;77;22680;-79
2021/01/08 09:26:17;;;;;;;13.40;9.28;;;;;;;10.18;44.53;100387.66;1802545;79;21651;-79
2021/01/08 09:28:55;;;;;;;17.12;9.60;;;;;;;10.16;44.49;100394.48;1824025;78;21666;-78
2021/01/08 09:31:45;;;;;;;14.58;9.18;;;;;;;10.17;44.41;100397.49;1815495;79;21658;-80
2021/01/08 09:34:21;;;;;;;13.53;8.73;;;;;;;10.17;44.30;100397.49;1816753;79;21100;-80
2021/01/08 09:36:51;;;;;;;13.58;9.58;;;;;;;10.15;44.35;100394.98;1813620;78;21320;-81
2021/01/08 09:39:20;;;;;;;14.18;9.88;;;;;;;10.14;44.26;100385.28;1797409;79;21096;-78
2021/01/08 09:41:57;;;;;;;15.43;9.93;;;;;;;10.14;44.32;100390.64;1798598;78;21369;-77
2021/01/08 09:44:35;;;;;;;14.30;9.80;;;;;;;10.15;44.38;100383.44;1786859;77;21124;-79
2021/01/08 09:47:13;;;;;;;12.75;9.10;;;;;;;10.14;44.29;100387.13;1792170;77;21671;-78
2021/01/08 09:49:47;;;;;;;14.10;9.55;;;;;;;10.14;44.35;100389.80;1815085;79;21543;-76
2021/01/08 09:52:16;;;;;;;18.32;10.35;;;;;;;10.13;44.51;100390.30;1781983;79;21175;-77
2021/01/08 09:54:50;;;;;;;21.93;12.95;;;;;;;10.13;44.59;100391.64;1789397;79;21358;-78
2021/01/08 09:57:34;;;;;;;19.27;11.88;;;;;;;10.12;44.71;100396.63;1791501;79;21181;-79
2021/01/08 10:00:09;;;;;;;15.05;9.93;;;;;;;10.14;44.75;100393.31;1783072;79;21207;-79
2021/01/08 10:02:47;;;;;;;15.65;9.98;;;;;;;10.15;44.42;100388.80;1780791;77;21112;-80
2021/01/08 10:05:33;;;;;;;14.90;10.32;;;;;;;10.13;44.34;100382.77;1784567;80;21645;-77
2021/01/08 10:08:02;;;;;;;14.13;9.45;;;;;;;10.14;44.23;100376.42;1783874;80;22200;-79
2021/01/08 10:10:39;;;;;;;17.10;10.35;;;;;;;10.14;43.98;100370.56;1783970;79;21140;-79
2021/01/08 10:13:19;;;;;;;15.90;10.90;;;;;;;10.14;43.93;100365.20;1788038;79;21102;-79
2021/01/08 10:15:50;;;;;;;18.07;11.05;;;;;;;10.14;43.82;100374.58;1784062;79;21216;-79
2021/01/08 10:18:27;;;;;;;16.90;10.15;;;;;;;10.11;43.72;100372.20;1797980;77;21176;-78
2021/01/08 10:21:06;;;;;;;14.38;9.73;;;;;;;10.10;43.65;100375.05;1800606;77;21858;-77
2021/01/08 10:23:40;;;;;;;15.83;9.10;;;;;;;10.07;43.70;100368.16;1808711;77;21104;-77
2021/01/08 10:26:13;;;;;;;14.70;9.65;;;;;;;10.07;43.68;100373.52;1801056;77;21156;-78
2021/01/08 10:28:55;;;;;;;14.10;10.00;;;;;;;10.07;43.88;100370.84;1799800;77;21462;-77
2021/01/08 10:31:23;;;;;;;14.03;9.73;;;;;;;10.07;43.95;100365.48;1805136;78;21094;-79
2021/01/08 10:33:59;;;;;;;17.23;11.38;;;;;;;10.06;44.05;100369.16;1807523;77;21366;-79
2021/01/08 10:36:27;;;;;;;16.40;9.95;;;;;;;10.05;44.06;100362.14;1794870;79;21155;-79
2021/01/08 10:38:56;;;;;;;14.45;9.25;;;;;;;10.04;43.92;100355.62;1815692;79;21092;-81
2021/01/08 10:41:24;;;;;;;13.85;9.58;;;;;;;10.02;43.87;100357.09;1810151;77;21081;-77
2021/01/08 10:43:51;;;;;;;13.08;8.53;;;;;;;10.00;43.88;100355.59;1807835;79;21095;-77
2021/01/08 10:46:21;;;;;;;15.00;9.40;;;;;;;10.02;43.70;100362.44;1796276;79;21888;-77
2021/01/08 10:48:50;;;;;;;14.90;9.83;;;;;;;10.01;43.73;100363.45;1807706;79;21137;-78
2021/01/08 10:51:17;;;;;;;14.83;9.80;;;;;;;9.99;43.74;100366.79;1790880;79;21689;-78
2021/01/08 10:53:45;;;;;;;17.48;11.18;;;;;;;9.97;43.94;100361.23;1809507;79;21117;-79
2021/01/08 10:56:13;;;;;;;15.98;10.78;;;;;;;9.96;43.99;100357.73;1803688;79;21085;-78
2021/01/08 10:58:41;;;;;;;16.80;10.88;;;;;;;9.98;43.91;100362.91;1815584;79;21356;-79
2021/01/08 11:01:09;;;;;;;16.65;11.15;;;;;;;9.97;43.86;100352.71;1815297;79;21519;-78
2021/01/08 11:03:37;;;;;;;16.48;11.33;;;;;;;9.97;43.89;100348.70;1810388;79;21164;-77
2021/01/08 11:06:05;;;;;;;15.43;10.60;;;;;;;9.97;43.77;100350.03;1814947;79;21160;-77
2021/01/08 11:08:34;;;;;;;14.75;9.60;;;;;;;9.98;43.68;100349.03;1815060;79;21421;-77
2021/01/08 11:11:02;;;;;;;15.78;11.18;;;;;;;9.96;43.64;100349.70;1814674;79;21783;-79
2021/01/08 11:13:29;;;;;;;19.00;11.43;;;;;;;9.96;43.78;100356.89;1811973;77;21175;-78
2021/01/08 11:15:57;;;;;;;18.87;12.33;;;;;;;9.95;43.86;100357.39;1813996;79;21184;-78
2021/01/08 11:18:26;;;;;;;20.30;13.18;;;;;;;9.96;43.91;100357.73;1813479;79;21195;-78
2021/01/08 11:20:54;;;;;;;16.40;11.55;;;;;;;9.96;43.88;100357.73;1812747;78;21390;-79
2021/01/08 11:23:24;;;;;;;16.00;11.10;;;;;;;9.96;43.92;100364.92;1813796;78;21194;-77
2021/01/08 11:25:52;;;;;;;14.40;10.48;;;;;;;9.95;43.84;100366.76;1812584;78;21175;-77
2021/01/08 11:28:19;;;;;;;14.28;10.98;;;;;;;9.94;43.77;100369.06;1799798;79;21147;-78
2021/01/08 11:30:50;;;;;;;14.00;10.13;;;;;;;9.95;43.77;100360.54;1781633;80;21218;-79
2021/01/08 11:33:18;;;;;;;12.88;9.60;;;;;;;9.96;43.67;100359.57;1781479;80;21175;-76
2021/01/08 11:35:47;;;;;;;14.65;11.05;;;;;;;9.95;43.79;100360.07;1783142;80;21378;-78